createdAt,value
2023-07-25T00:01:12.804Z,22.80
2023-07-25T00:03:42.416Z,22.78
2023-07-25T00:06:10.059Z,22.76
2023-07-25T00:08:37.878Z,22.71
2023-07-25T00:11:05.372Z,22.68
2023-07-25T00:13:33.129Z,22.64
2023-07-25T00:16:00.762Z,22.63
2023-07-25T00:18:30.762Z,22.61
2023-07-25T00:20:58.370Z,22.55
2023-07-25T00:23:26.009Z,22.47
2023-07-25T00:25:53.802Z,22.38
2023-07-25T00:28:23.714Z,22.33
2023-07-25T00:30:51.360Z,22.29
2023-07-25T00:33:19.003Z,22.26
2023-07-25T00:35:53.805Z,22.25
2023-07-25T00:38:21.548Z,22.21
2023-07-25T00:40:49.153Z,22.17
2023-07-25T00:43:17.133Z,22.12
2023-07-25T00:45:45.027Z,22.08
2023-07-25T00:48:13.610Z,22.01
2023-07-25T00:50:41.537Z,21.94
2023-07-25T00:53:11.063Z,21.89
2023-07-25T00:55:38.702Z,21.86
2023-07-25T00:58:06.344Z,21.83
2023-07-25T01:00:34.014Z,21.79
2023-07-25T01:03:03.078Z,21.72
2023-07-25T01:05:30.769Z,21.66
2023-07-25T01:07:58.433Z,21.64
2023-07-25T01:10:25.962Z,21.57
2023-07-25T01:12:53.673Z,21.52
2023-07-25T01:15:21.425Z,21.54
2023-07-25T01:17:48.962Z,21.51
2023-07-25T01:20:16.651Z,21.47
2023-07-25T01:22:44.186Z,21.38
2023-07-25T01:25:11.828Z,21.35
2023-07-25T01:27:39.639Z,21.32
2023-07-25T01:30:07.535Z,21.23
2023-07-25T01:32:35.169Z,21.17
2023-07-25T01:35:02.909Z,21.15
2023-07-25T01:37:30.595Z,21.10
2023-07-25T01:39:58.668Z,21.06
2023-07-25T01:42:26.189Z,21.01
2023-07-25T01:44:53.623Z,20.99
2023-07-25T01:47:26.653Z,20.96
2023-07-25T01:49:54.613Z,20.93
2023-07-25T01:52:22.313Z,20.90
2023-07-25T01:54:50.814Z,20.94
2023-07-25T01:57:18.523Z,20.92
2023-07-25T01:59:46.147Z,20.95
2023-07-25T02:02:14.098Z,20.94
2023-07-25T02:04:43.140Z,20.88
2023-07-25T02:07:10.803Z,20.88
2023-07-25T02:09:38.514Z,20.83
2023-07-25T02:12:06.805Z,20.78
2023-07-25T02:14:34.510Z,20.78
2023-07-25T02:17:02.292Z,20.72
2023-07-25T02:19:29.989Z,20.69
2023-07-25T02:21:57.473Z,20.65
2023-07-25T02:24:25.245Z,20.62
2023-07-25T02:26:52.712Z,20.52
2023-07-25T02:29:20.519Z,20.48
2023-07-25T02:31:48.214Z,20.50
2023-07-25T02:34:16.655Z,20.51
2023-07-25T02:36:44.359Z,20.50
2023-07-25T02:39:12.050Z,20.51
2023-07-25T02:41:39.846Z,20.51
2023-07-25T02:44:07.528Z,20.51
2023-07-25T02:46:35.089Z,20.50
2023-07-25T02:49:03.341Z,20.49
2023-07-25T02:51:31.339Z,20.48
2023-07-25T02:53:59.347Z,20.49
2023-07-25T02:56:29.979Z,20.49
2023-07-25T02:58:57.634Z,20.49
2023-07-25T03:01:25.660Z,20.48
2023-07-25T03:03:53.295Z,20.49
2023-07-25T03:06:21.062Z,20.51
2023-07-25T03:08:48.889Z,20.51
2023-07-25T03:11:16.420Z,20.54
2023-07-25T03:13:43.913Z,20.57
2023-07-25T03:16:11.985Z,20.58
2023-07-25T03:18:39.562Z,20.59
2023-07-25T03:21:07.349Z,20.61
2023-07-25T03:23:35.071Z,20.65
2023-07-25T03:26:02.732Z,20.71
2023-07-25T03:28:30.452Z,20.82
2023-07-25T03:30:58.494Z,20.88
2023-07-25T03:33:26.192Z,20.95
2023-07-25T03:35:53.673Z,21.02
2023-07-25T03:38:21.342Z,21.07
2023-07-25T03:40:48.946Z,21.13
2023-07-25T03:43:16.793Z,21.16
2023-07-25T03:45:44.302Z,21.20
2023-07-25T03:48:12.099Z,21.21
2023-07-25T03:50:39.802Z,21.22
2023-07-25T03:53:09.398Z,21.24
2023-07-25T03:55:37.272Z,21.25
2023-07-25T03:58:04.852Z,21.25
2023-07-25T04:00:32.517Z,21.29
2023-07-25T04:03:13.229Z,21.33
2023-07-25T04:05:42.760Z,21.43
2023-07-25T04:08:10.291Z,21.46
2023-07-25T04:10:37.851Z,21.46
2023-07-25T04:13:05.605Z,21.51
2023-07-25T04:15:33.137Z,21.53
2023-07-25T04:18:00.839Z,21.41
2023-07-25T04:20:28.494Z,21.37
2023-07-25T04:22:58.114Z,21.31
2023-07-25T04:25:27.387Z,21.31
2023-07-25T04:27:55.148Z,21.34
2023-07-25T04:30:22.965Z,21.40
2023-07-25T04:32:50.447Z,21.48
2023-07-25T04:35:18.048Z,21.59
2023-07-25T04:37:45.581Z,21.68
2023-07-25T04:40:13.539Z,21.78
2023-07-25T04:42:41.398Z,21.99
2023-07-25T04:45:09.033Z,22.16
2023-07-25T04:47:36.604Z,22.23
2023-07-25T04:50:04.407Z,22.30
2023-07-25T04:52:31.860Z,22.42
2023-07-25T04:55:00.236Z,22.51
2023-07-25T04:57:28.528Z,22.58
2023-07-25T04:59:56.029Z,22.68
2023-07-25T05:02:23.608Z,22.84
2023-07-25T05:04:51.369Z,22.97
2023-07-25T05:07:19.149Z,23.08
2023-07-25T05:09:46.624Z,23.16
2023-07-25T05:12:14.716Z,23.30
2023-07-25T05:14:42.226Z,23.43
2023-07-25T05:17:09.697Z,23.56
2023-07-25T05:19:37.485Z,23.72
2023-07-25T05:22:05.078Z,23.86
2023-07-25T05:24:32.734Z,23.98
2023-07-25T05:27:00.457Z,24.15
2023-07-25T05:29:28.352Z,24.32
2023-07-25T05:31:56.225Z,24.44
2023-07-25T05:34:23.793Z,24.55
2023-07-25T05:36:51.303Z,24.67
2023-07-25T05:39:18.885Z,24.79
2023-07-25T05:41:46.513Z,24.92
2023-07-25T05:44:14.306Z,25.04
2023-07-25T05:46:41.794Z,25.15
2023-07-25T05:49:09.474Z,25.24
2023-07-25T05:51:36.983Z,25.32
2023-07-25T05:54:04.702Z,25.43
2023-07-25T05:56:32.749Z,25.54
2023-07-25T05:59:00.707Z,25.62
2023-07-25T06:01:28.386Z,25.77
2023-07-25T06:03:56.151Z,25.88
2023-07-25T06:06:23.666Z,25.99
2023-07-25T06:08:51.547Z,26.12
2023-07-25T06:11:22.512Z,26.21
2023-07-25T06:13:54.168Z,26.35
2023-07-25T06:16:21.929Z,26.44
2023-07-25T06:18:50.175Z,26.55
2023-07-25T06:21:17.996Z,26.68
2023-07-25T06:23:45.536Z,26.81
2023-07-25T06:26:13.149Z,26.91
2023-07-25T06:28:41.069Z,27.01
2023-07-25T06:31:08.637Z,27.09
2023-07-25T06:33:36.672Z,27.17
2023-07-25T06:36:04.310Z,27.28
2023-07-25T06:38:31.847Z,27.38
2023-07-25T06:40:59.668Z,27.47
2023-07-25T06:43:27.215Z,27.58
2023-07-25T06:45:55.012Z,27.67
2023-07-25T06:48:22.589Z,27.71
2023-07-25T06:50:50.145Z,27.78
2023-07-25T06:53:17.864Z,27.87
2023-07-25T06:55:45.610Z,27.96
2023-07-25T06:58:14.651Z,28.07
2023-07-25T07:00:42.676Z,28.17
2023-07-25T07:03:10.343Z,28.21
2023-07-25T07:05:38.140Z,28.23
2023-07-25T07:08:05.815Z,28.27
2023-07-25T07:10:35.060Z,28.40
2023-07-25T07:13:02.643Z,28.50
2023-07-25T07:15:30.259Z,28.57
2023-07-25T07:17:57.867Z,28.68
2023-07-25T07:20:25.288Z,28.84
2023-07-25T07:22:53.264Z,28.96
2023-07-25T07:25:20.865Z,29.05
2023-07-25T07:27:49.060Z,29.14
2023-07-25T07:30:16.671Z,29.29
2023-07-25T07:32:44.503Z,29.37
2023-07-25T07:35:12.172Z,29.40
2023-07-25T07:37:39.838Z,29.45
2023-07-25T07:40:07.943Z,29.50
2023-07-25T07:42:35.458Z,29.51
2023-07-25T07:45:03.130Z,29.50
2023-07-25T07:47:31.039Z,29.47
2023-07-25T07:49:58.751Z,29.48
2023-07-25T07:52:37.326Z,29.50
2023-07-25T07:55:12.486Z,29.54
2023-07-25T07:57:43.421Z,29.59
2023-07-25T08:00:11.785Z,29.69
2023-07-25T08:02:39.167Z,29.82
2023-07-25T08:05:07.057Z,29.93
2023-07-25T08:07:34.615Z,30.04
2023-07-25T08:10:02.340Z,30.15
2023-07-25T08:12:30.537Z,30.20
2023-07-25T08:14:57.974Z,30.21
2023-07-25T08:17:25.653Z,30.22
2023-07-25T08:19:53.184Z,30.20
2023-07-25T08:22:20.638Z,30.16
2023-07-25T08:24:48.318Z,30.15
2023-07-25T08:27:16.089Z,30.20
2023-07-25T08:32:50.781Z,30.39
2023-07-25T08:35:18.699Z,30.49
2023-07-25T08:37:46.177Z,30.55
2023-07-25T08:40:13.884Z,30.63
2023-07-25T08:42:42.627Z,30.68
2023-07-25T08:45:10.440Z,30.77
2023-07-25T08:47:42.283Z,30.85
2023-07-25T08:50:10.972Z,30.98
2023-07-25T08:52:38.429Z,31.14
2023-07-25T08:55:06.322Z,31.29
2023-07-25T08:57:33.925Z,31.46
2023-07-25T09:00:01.494Z,31.64
2023-07-25T09:02:29.246Z,31.80
2023-07-25T09:04:56.834Z,31.84
2023-07-25T09:07:24.499Z,31.91
2023-07-25T09:09:52.052Z,31.96
2023-07-25T09:12:19.777Z,32.05
2023-07-25T09:14:47.198Z,32.11
2023-07-25T09:17:14.651Z,32.16
2023-07-25T09:19:42.837Z,32.00
2023-07-25T09:22:43.109Z,31.91
2023-07-25T09:25:10.899Z,31.90
2023-07-25T09:27:38.396Z,31.90
2023-07-25T09:30:11.495Z,32.02
2023-07-25T09:32:39.025Z,32.11
2023-07-25T09:35:07.533Z,32.13
2023-07-25T09:37:35.430Z,32.18
2023-07-25T09:40:03.629Z,32.17
2023-07-25T11:45:56.909Z,33.27
2023-07-25T11:48:25.014Z,33.46
2023-07-25T11:50:52.812Z,33.38
2023-07-25T11:53:23.034Z,33.33
2023-07-25T11:55:53.741Z,33.43
2023-07-25T11:58:22.575Z,33.47
2023-07-25T12:00:52.950Z,33.46
2023-07-25T12:03:24.320Z,33.32
2023-07-25T12:06:00.009Z,33.24
2023-07-25T12:08:35.199Z,33.24
2023-07-25T12:11:08.808Z,33.30
2023-07-25T12:13:53.659Z,33.35
2023-07-25T12:16:28.757Z,33.35
2023-07-25T12:18:58.787Z,33.42
2023-07-25T12:21:37.158Z,33.46
2023-07-25T12:24:12.408Z,33.48
2023-07-25T12:26:44.328Z,33.54
2023-07-25T12:29:22.692Z,33.56
2023-07-25T12:31:50.485Z,33.58
2023-07-25T12:34:20.796Z,33.58
2023-07-25T12:36:51.763Z,33.57
2023-07-25T12:39:21.314Z,33.62
2023-07-25T12:41:49.098Z,33.64
2023-07-25T12:44:16.798Z,33.58
2023-07-25T12:46:44.596Z,33.54
2023-07-25T12:49:12.498Z,33.55
2023-07-25T12:51:40.243Z,33.61
2023-07-25T12:54:08.142Z,33.62
2023-07-25T12:56:36.170Z,33.65
2023-07-25T12:59:04.128Z,33.66
2023-07-25T13:01:32.282Z,33.66
2023-07-25T13:04:00.427Z,33.59
2023-07-25T13:06:28.479Z,33.54
2023-07-25T13:08:56.280Z,33.53
2023-07-25T13:11:23.909Z,33.52
2023-07-25T13:13:51.714Z,33.51
2023-07-25T13:16:19.475Z,33.54
2023-07-25T13:18:47.263Z,33.58
2023-07-25T13:21:15.388Z,33.68
2023-07-25T13:23:43.197Z,33.67
2023-07-25T13:26:10.971Z,33.68
2023-07-25T13:28:38.810Z,33.72
2023-07-25T13:31:06.583Z,33.76
2023-07-25T13:33:34.415Z,33.78
2023-07-25T13:36:02.476Z,33.81
2023-07-25T13:38:30.268Z,33.85
2023-07-25T13:40:57.899Z,33.91
2023-07-25T13:43:25.823Z,33.95
2023-07-25T13:45:53.732Z,34.00
2023-07-25T13:48:22.274Z,34.07
2023-07-25T13:50:54.374Z,34.08
2023-07-25T13:53:23.214Z,34.06
2023-07-25T13:55:52.100Z,34.02
2023-07-25T14:00:53.787Z,33.99
2023-07-25T14:03:21.598Z,34.00
2023-07-25T14:05:49.331Z,34.03
2023-07-25T14:08:17.068Z,34.01
2023-07-25T14:10:45.197Z,33.97
2023-07-25T14:13:12.854Z,33.92
2023-07-25T14:15:41.907Z,33.88
2023-07-25T14:18:09.638Z,33.87
2023-07-25T14:20:39.309Z,33.88
2023-07-25T14:23:07.122Z,33.86
2023-07-25T14:25:34.906Z,33.86
2023-07-25T14:28:02.571Z,33.86
2023-07-25T14:30:31.308Z,33.92
2023-07-25T14:32:59.653Z,33.95
2023-07-25T14:35:27.687Z,33.96
2023-07-25T14:37:57.698Z,33.98
2023-07-25T14:40:26.434Z,34.02
2023-07-25T14:42:54.118Z,34.04
2023-07-25T14:45:22.039Z,34.06
2023-07-25T14:47:50.196Z,34.08
2023-07-25T14:50:17.986Z,34.18
2023-07-25T14:52:46.013Z,34.27
2023-07-25T14:55:14.581Z,34.36
2023-07-25T14:57:42.456Z,34.37
2023-07-25T15:00:10.969Z,34.34
2023-07-25T15:02:39.032Z,34.37
2023-07-25T15:05:07.230Z,34.44
2023-07-25T15:07:35.415Z,34.57
2023-07-25T15:10:04.144Z,34.65
2023-07-25T15:12:32.579Z,34.74
2023-07-25T15:15:00.413Z,34.91
2023-07-25T15:17:28.279Z,35.39
2023-07-25T15:20:00.377Z,36.39
2023-07-25T15:22:28.482Z,37.57
2023-07-25T15:24:56.474Z,38.58
2023-07-25T15:27:24.340Z,39.39
2023-07-25T15:29:52.393Z,40.17
2023-07-25T15:32:20.479Z,40.85
2023-07-25T15:34:49.418Z,41.25
2023-07-25T15:37:17.426Z,41.48
2023-07-25T15:39:45.040Z,41.74
2023-07-25T15:42:13.024Z,41.98
2023-07-25T15:44:40.875Z,42.04
2023-07-25T15:47:08.610Z,41.56
2023-07-25T15:49:36.454Z,41.06
2023-07-25T15:52:04.545Z,40.87
2023-07-25T15:54:32.222Z,40.51
2023-07-25T15:56:59.937Z,39.76
2023-07-25T15:59:27.957Z,39.16
2023-07-25T16:01:55.779Z,38.63
2023-07-25T16:04:23.445Z,38.16
2023-07-25T16:06:51.223Z,37.76
2023-07-25T16:09:19.465Z,37.39
2023-07-25T16:11:47.174Z,36.99
2023-07-25T16:14:15.153Z,36.67
2023-07-25T16:16:43.097Z,36.43
2023-07-25T16:19:10.729Z,36.16
2023-07-25T16:21:38.508Z,35.90
2023-07-25T16:24:06.520Z,35.64
2023-07-25T16:26:34.347Z,35.33
2023-07-25T16:29:02.055Z,35.02
2023-07-25T16:31:33.071Z,34.78
2023-07-25T16:34:01.211Z,34.53
2023-07-25T16:36:29.087Z,34.27
2023-07-25T16:38:56.882Z,34.04
2023-07-25T16:41:24.532Z,33.84
2023-07-25T16:43:52.445Z,33.59
2023-07-25T16:46:20.272Z,33.34
2023-07-25T16:48:48.156Z,33.13
2023-07-25T16:51:16.282Z,32.96
2023-07-25T16:53:43.938Z,32.80
2023-07-25T16:56:11.636Z,32.67
2023-07-25T16:58:39.578Z,32.54
2023-07-25T17:01:07.531Z,32.40
2023-07-25T17:03:35.433Z,32.26
2023-07-25T17:06:05.198Z,32.09
2023-07-25T17:08:33.257Z,31.95
2023-07-25T17:11:05.949Z,31.87
2023-07-25T17:13:36.937Z,31.76
2023-07-25T17:16:07.683Z,31.63
2023-07-25T17:18:35.544Z,31.50
2023-07-25T17:21:03.170Z,31.41
2023-07-25T17:23:31.098Z,31.32
2023-07-25T17:25:58.859Z,31.23
2023-07-25T17:28:26.824Z,31.15
2023-07-25T17:30:55.526Z,31.05
2023-07-25T17:33:23.472Z,30.94
2023-07-25T17:35:51.517Z,30.84
2023-07-25T17:38:19.627Z,30.76
2023-07-25T17:40:48.764Z,30.69
2023-07-25T17:43:16.602Z,30.55
2023-07-25T17:45:44.378Z,30.37
2023-07-25T17:48:12.143Z,30.25
2023-07-25T17:50:39.888Z,30.18
2023-07-25T17:53:07.703Z,30.05
2023-07-25T17:55:35.466Z,29.92
2023-07-25T17:58:03.063Z,29.83
2023-07-25T18:00:30.796Z,29.73
2023-07-25T18:02:59.022Z,29.64
2023-07-25T18:05:26.867Z,29.55
2023-07-25T18:07:54.610Z,29.42
2023-07-25T18:10:22.424Z,29.30
2023-07-25T18:12:49.894Z,29.20
2023-07-25T18:15:17.729Z,29.10
2023-07-25T18:17:45.817Z,29.03
2023-07-25T18:20:13.755Z,28.94
2023-07-25T18:22:41.427Z,28.88
2023-07-25T18:25:09.198Z,28.81
2023-07-25T18:27:37.006Z,28.75
2023-07-25T18:30:05.488Z,28.69
2023-07-25T18:32:33.174Z,28.63
2023-07-25T18:35:00.757Z,28.60
2023-07-25T18:37:28.421Z,28.55
2023-07-25T18:39:56.257Z,28.46
2023-07-25T18:42:24.275Z,28.39
2023-07-25T18:44:52.002Z,28.32
2023-07-25T18:47:33.604Z,28.27
2023-07-25T18:50:02.668Z,28.23
2023-07-25T18:52:30.442Z,28.11
2023-07-25T18:54:57.996Z,28.05
2023-07-25T18:57:25.814Z,28.00
2023-07-25T18:59:53.559Z,27.95
2023-07-25T19:02:21.436Z,27.94
2023-07-25T19:04:49.629Z,27.94
2023-07-25T19:07:18.532Z,27.97
2023-07-25T19:09:46.364Z,27.96
2023-07-25T19:12:14.307Z,27.95
2023-07-25T19:14:43.035Z,27.94
2023-07-25T19:17:10.841Z,27.93
2023-07-25T19:19:39.192Z,27.91
2023-07-25T19:22:07.652Z,27.88
2023-07-25T19:24:35.444Z,27.89
2023-07-25T19:27:03.356Z,27.87
2023-07-25T19:29:31.185Z,27.86
2023-07-25T19:31:58.776Z,27.85
2023-07-25T19:34:26.464Z,27.83
2023-07-25T19:36:54.472Z,27.77
2023-07-25T19:39:25.269Z,27.75
2023-07-25T19:41:54.207Z,27.70
2023-07-25T19:44:22.093Z,27.62
2023-07-25T19:46:52.395Z,27.59
2023-07-25T19:49:20.674Z,27.57
2023-07-25T19:51:48.462Z,27.57
2023-07-25T19:54:16.271Z,27.51
2023-07-25T19:56:43.977Z,27.45
2023-07-25T19:59:11.571Z,27.41
2023-07-25T20:01:39.239Z,27.41
2023-07-25T20:04:07.184Z,27.38
2023-07-25T20:06:35.446Z,27.37
2023-07-25T20:09:03.148Z,27.37
2023-07-25T20:11:30.743Z,27.37
2023-07-25T20:13:59.372Z,27.33
2023-07-25T20:16:27.118Z,27.32
2023-07-25T20:18:55.065Z,27.32
2023-07-25T20:21:22.674Z,27.32
2023-07-25T20:23:50.205Z,27.33
2023-07-25T20:26:18.237Z,27.31
2023-07-25T20:28:45.925Z,27.31
2023-07-25T20:31:14.010Z,27.32
2023-07-25T20:33:44.758Z,27.29
2023-07-25T20:36:12.376Z,27.26
2023-07-25T20:38:40.099Z,27.23
2023-07-25T20:41:07.732Z,27.20
2023-07-25T20:43:35.545Z,27.19
2023-07-25T20:46:04.517Z,27.15
2023-07-25T20:48:32.964Z,27.18
2023-07-25T20:51:01.274Z,27.18
2023-07-25T20:53:29.043Z,27.16
2023-07-25T20:55:56.916Z,27.16
2023-07-25T20:58:24.969Z,27.14
2023-07-25T21:00:52.548Z,27.11
2023-07-25T21:03:20.347Z,27.10
2023-07-25T21:05:48.285Z,27.07
2023-07-25T21:08:15.980Z,27.08
2023-07-25T21:10:43.530Z,27.05
2023-07-25T21:13:11.102Z,27.02
2023-07-25T21:15:38.720Z,27.00
2023-07-25T21:18:13.206Z,26.99
2023-07-25T21:20:42.727Z,26.99
2023-07-25T21:23:11.624Z,26.98
2023-07-25T21:25:39.193Z,26.97
2023-07-25T21:28:06.776Z,26.94
2023-07-25T21:30:34.350Z,26.91
2023-07-25T21:33:02.041Z,26.92
2023-07-25T21:35:29.552Z,26.91
2023-07-25T21:37:57.118Z,26.91
2023-07-25T21:40:25.072Z,26.89
2023-07-25T21:42:52.783Z,26.89
2023-07-25T21:45:20.536Z,26.88
2023-07-25T21:47:48.162Z,26.87
2023-07-25T21:50:15.923Z,26.87
2023-07-25T21:52:43.661Z,26.87
2023-07-25T21:55:11.306Z,26.85
2023-07-25T21:57:38.939Z,26.83
2023-07-25T22:00:07.397Z,26.83
2023-07-25T22:02:42.427Z,26.80
2023-07-25T22:05:10.067Z,26.77
2023-07-25T22:07:39.856Z,26.74
2023-07-25T22:10:07.850Z,26.73
2023-07-25T22:12:35.527Z,26.74
2023-07-25T22:15:03.135Z,26.74
2023-07-25T22:17:30.613Z,26.71
2023-07-25T22:19:58.273Z,26.70
2023-07-25T22:22:25.853Z,26.67
2023-07-25T22:24:53.484Z,26.67
2023-07-25T22:27:21.221Z,26.66
2023-07-25T22:29:48.877Z,26.67
2023-07-25T22:32:16.722Z,26.64
2023-07-25T22:34:44.396Z,26.60
2023-07-25T22:37:11.810Z,26.57
2023-07-25T22:39:39.215Z,26.50
2023-07-25T22:42:06.977Z,26.43
2023-07-25T22:44:34.582Z,26.35
2023-07-25T22:47:02.265Z,26.31
2023-07-25T22:49:29.887Z,26.30
2023-07-25T22:51:57.396Z,26.26
2023-07-25T22:54:25.125Z,26.23
2023-07-25T22:56:52.587Z,26.20
2023-07-25T22:59:20.196Z,26.17
2023-07-25T23:01:47.836Z,26.13
2023-07-25T23:04:15.380Z,26.09
2023-07-25T23:06:42.891Z,26.09
2023-07-25T23:09:10.412Z,26.08
2023-07-25T23:11:38.043Z,26.07
2023-07-25T23:14:05.604Z,26.05
2023-07-25T23:16:33.391Z,26.04
2023-07-25T23:19:01.461Z,26.05
2023-07-25T23:21:28.879Z,26.03
2023-07-25T23:23:56.550Z,26.00
2023-07-25T23:26:24.052Z,25.96
2023-07-25T23:28:51.561Z,25.95
2023-07-25T23:31:19.316Z,25.98
2023-07-25T23:33:46.768Z,25.98
2023-07-25T23:36:14.851Z,25.98
2023-07-25T23:38:42.385Z,25.95
2023-07-25T23:41:09.903Z,25.94
2023-07-25T23:43:37.447Z,25.92
2023-07-25T23:46:04.922Z,25.92
2023-07-25T23:48:36.685Z,25.92
2023-07-25T23:51:04.400Z,25.90
2023-07-25T23:53:31.864Z,25.89
2023-07-25T23:55:59.476Z,25.87
2023-07-25T23:58:26.981Z,25.81
